sensor_id;sensor_type;location;lat;lon;timestamp;P1;durP1;ratioP1;P2;durP2;ratioP2
20245;SDS011;10281;54.406;18.556;2023-08-30T00:01:24;7.57;;;6.77;;
20245;SDS011;10281;54.406;18.556;2023-08-30T00:03:51;10.03;;;7.50;;
20245;SDS011;10281;54.406;18.556;2023-08-30T00:06:18;12.50;;;6.53;;
20245;SDS011;10281;54.406;18.556;2023-08-30T00:08:44;8.10;;;6.47;;
20245;SDS011;10281;54.406;18.556;2023-08-30T00:11:11;9.53;;;6.30;;
20245;SDS011;10281;54.406;18.556;2023-08-30T00:13:38;12.07;;;7.30;;
20245;SDS011;10281;54.406;18.556;2023-08-30T00:16:04;7.70;;;6.70;;
20245;SDS011;10281;54.406;18.556;2023-08-30T00:18:31;9.33;;;6.83;;
20245;SDS011;10281;54.406;18.556;2023-08-30T00:20:57;12.47;;;7.97;;
20245;SDS011;10281;54.406;18.556;2023-08-30T00:23:24;13.87;;;7.60;;
20245;SDS011;10281;54.406;18.556;2023-08-30T00:25:51;10.93;;;8.33;;
20245;SDS011;10281;54.406;18.556;2023-08-30T00:28:18;12.73;;;8.23;;
20245;SDS011;10281;54.406;18.556;2023-08-30T00:30:44;11.53;;;7.60;;
20245;SDS011;10281;54.406;18.556;2023-08-30T00:33:11;14.57;;;7.77;;
20245;SDS011;10281;54.406;18.556;2023-08-30T00:35:37;9.80;;;6.90;;
20245;SDS011;10281;54.406;18.556;2023-08-30T00:38:04;13.00;;;8.20;;
20245;SDS011;10281;54.406;18.556;2023-08-30T00:40:37;13.37;;;10.00;;
20245;SDS011;10281;54.406;18.556;2023-08-30T00:43:04;16.80;;;10.03;;
20245;SDS011;10281;54.406;18.556;2023-08-30T00:45:30;20.07;;;11.43;;
20245;SDS011;10281;54.406;18.556;2023-08-30T00:47:57;23.33;;;12.13;;
20245;SDS011;10281;54.406;18.556;2023-08-30T00:50:24;18.90;;;11.73;;
20245;SDS011;10281;54.406;18.556;2023-08-30T00:52:51;20.27;;;12.00;;
20245;SDS011;10281;54.406;18.556;2023-08-30T00:55:18;20.97;;;11.70;;
20245;SDS011;10281;54.406;18.556;2023-08-30T00:57:44;21.23;;;11.93;;
20245;SDS011;10281;54.406;18.556;2023-08-30T01:00:11;19.67;;;12.20;;
20245;SDS011;10281;54.406;18.556;2023-08-30T01:02:38;21.80;;;12.20;;
20245;SDS011;10281;54.406;18.556;2023-08-30T01:05:05;24.90;;;13.03;;
20245;SDS011;10281;54.406;18.556;2023-08-30T01:07:32;19.63;;;12.17;;
20245;SDS011;10281;54.406;18.556;2023-08-30T01:09:58;18.20;;;11.83;;
20245;SDS011;10281;54.406;18.556;2023-08-30T01:12:29;25.63;;;13.60;;
20245;SDS011;10281;54.406;18.556;2023-08-30T01:15:02;23.70;;;12.93;;
20245;SDS011;10281;54.406;18.556;2023-08-30T01:17:31;18.20;;;12.10;;
20245;SDS011;10281;54.406;18.556;2023-08-30T01:20:01;23.30;;;12.80;;
20245;SDS011;10281;54.406;18.556;2023-08-30T01:22:42;18.53;;;12.33;;
20245;SDS011;10281;54.406;18.556;2023-08-30T01:27:55;23.73;;;12.77;;
20245;SDS011;10281;54.406;18.556;2023-08-30T01:30:23;21.30;;;13.33;;
20245;SDS011;10281;54.406;18.556;2023-08-30T01:32:52;27.00;;;14.23;;
20245;SDS011;10281;54.406;18.556;2023-08-30T01:35:21;25.33;;;13.37;;
20245;SDS011;10281;54.406;18.556;2023-08-30T01:37:50;25.63;;;13.93;;
20245;SDS011;10281;54.406;18.556;2023-08-30T01:40:18;26.40;;;13.83;;
20245;SDS011;10281;54.406;18.556;2023-08-30T01:42:46;23.17;;;13.93;;
20245;SDS011;10281;54.406;18.556;2023-08-30T01:45:14;23.53;;;13.53;;
20245;SDS011;10281;54.406;18.556;2023-08-30T01:47:42;24.40;;;14.10;;
20245;SDS011;10281;54.406;18.556;2023-08-30T01:50:09;24.27;;;13.30;;
20245;SDS011;10281;54.406;18.556;2023-08-30T01:52:37;27.77;;;14.10;;
20245;SDS011;10281;54.406;18.556;2023-08-30T01:55:05;25.73;;;14.13;;
20245;SDS011;10281;54.406;18.556;2023-08-30T01:57:33;29.13;;;14.27;;
20245;SDS011;10281;54.406;18.556;2023-08-30T02:00:00;24.60;;;13.53;;
20245;SDS011;10281;54.406;18.556;2023-08-30T02:02:28;28.30;;;14.17;;
20245;SDS011;10281;54.406;18.556;2023-08-30T02:04:56;26.10;;;14.37;;
20245;SDS011;10281;54.406;18.556;2023-08-30T02:10:10;28.17;;;14.83;;
20245;SDS011;10281;54.406;18.556;2023-08-30T02:12:42;28.50;;;14.30;;
20245;SDS011;10281;54.406;18.556;2023-08-30T02:15:12;30.40;;;14.33;;
20245;SDS011;10281;54.406;18.556;2023-08-30T02:17:40;26.60;;;14.67;;
20245;SDS011;10281;54.406;18.556;2023-08-30T02:20:07;27.83;;;14.70;;
20245;SDS011;10281;54.406;18.556;2023-08-30T02:22:34;30.33;;;14.60;;
20245;SDS011;10281;54.406;18.556;2023-08-30T02:25:01;36.70;;;15.20;;
20245;SDS011;10281;54.406;18.556;2023-08-30T02:27:31;28.10;;;14.20;;
20245;SDS011;10281;54.406;18.556;2023-08-30T02:29:58;25.63;;;13.03;;
20245;SDS011;10281;54.406;18.556;2023-08-30T02:32:25;23.40;;;13.93;;
20245;SDS011;10281;54.406;18.556;2023-08-30T02:34:52;27.63;;;14.13;;
20245;SDS011;10281;54.406;18.556;2023-08-30T02:37:19;25.10;;;13.73;;
20245;SDS011;10281;54.406;18.556;2023-08-30T02:39:46;23.23;;;12.57;;
20245;SDS011;10281;54.406;18.556;2023-08-30T02:42:12;24.57;;;12.73;;
20245;SDS011;10281;54.406;18.556;2023-08-30T02:44:39;23.40;;;11.10;;
20245;SDS011;10281;54.406;18.556;2023-08-30T02:47:06;21.93;;;11.70;;
20245;SDS011;10281;54.406;18.556;2023-08-30T02:49:32;19.13;;;10.93;;
20245;SDS011;10281;54.406;18.556;2023-08-30T02:51:59;20.47;;;10.77;;
20245;SDS011;10281;54.406;18.556;2023-08-30T02:54:26;20.33;;;10.43;;
20245;SDS011;10281;54.406;18.556;2023-08-30T02:56:52;21.77;;;9.90;;
20245;SDS011;10281;54.406;18.556;2023-08-30T02:59:19;14.50;;;8.83;;
20245;SDS011;10281;54.406;18.556;2023-08-30T03:01:46;14.33;;;8.07;;
20245;SDS011;10281;54.406;18.556;2023-08-30T03:04:12;13.80;;;7.77;;
20245;SDS011;10281;54.406;18.556;2023-08-30T03:06:40;14.27;;;8.00;;
20245;SDS011;10281;54.406;18.556;2023-08-30T03:09:06;11.43;;;7.00;;
20245;SDS011;10281;54.406;18.556;2023-08-30T03:11:33;11.87;;;7.03;;
20245;SDS011;10281;54.406;18.556;2023-08-30T03:14:00;9.60;;;6.30;;
20245;SDS011;10281;54.406;18.556;2023-08-30T03:16:26;8.27;;;5.47;;
20245;SDS011;10281;54.406;18.556;2023-08-30T03:18:54;8.73;;;5.03;;
20245;SDS011;10281;54.406;18.556;2023-08-30T03:21:21;11.83;;;6.27;;
20245;SDS011;10281;54.406;18.556;2023-08-30T03:23:47;10.10;;;4.93;;
20245;SDS011;10281;54.406;18.556;2023-08-30T03:26:15;7.83;;;4.47;;
20245;SDS011;10281;54.406;18.556;2023-08-30T03:28:43;7.37;;;4.07;;
20245;SDS011;10281;54.406;18.556;2023-08-30T03:31:11;6.70;;;3.90;;
20245;SDS011;10281;54.406;18.556;2023-08-30T03:33:39;5.57;;;4.27;;
20245;SDS011;10281;54.406;18.556;2023-08-30T03:36:07;5.73;;;3.73;;
20245;SDS011;10281;54.406;18.556;2023-08-30T03:38:36;5.97;;;3.30;;
20245;SDS011;10281;54.406;18.556;2023-08-30T03:41:03;3.57;;;3.10;;
20245;SDS011;10281;54.406;18.556;2023-08-30T03:43:30;3.20;;;2.60;;
20245;SDS011;10281;54.406;18.556;2023-08-30T03:46:00;3.67;;;2.60;;
20245;SDS011;10281;54.406;18.556;2023-08-30T03:48:28;2.27;;;2.03;;
20245;SDS011;10281;54.406;18.556;2023-08-30T03:50:56;3.17;;;2.57;;
20245;SDS011;10281;54.406;18.556;2023-08-30T03:53:23;1.73;;;1.63;;
20245;SDS011;10281;54.406;18.556;2023-08-30T03:55:51;1.70;;;1.60;;
20245;SDS011;10281;54.406;18.556;2023-08-30T03:58:18;2.40;;;1.40;;
20245;SDS011;10281;54.406;18.556;2023-08-30T04:00:45;1.90;;;1.80;;
20245;SDS011;10281;54.406;18.556;2023-08-30T04:03:12;2.87;;;1.83;;
20245;SDS011;10281;54.406;18.556;2023-08-30T04:05:40;2.37;;;2.00;;
20245;SDS011;10281;54.406;18.556;2023-08-30T04:08:07;2.20;;;2.10;;
20245;SDS011;10281;54.406;18.556;2023-08-30T04:10:35;2.40;;;2.20;;
20245;SDS011;10281;54.406;18.556;2023-08-30T04:13:03;2.30;;;2.10;;
20245;SDS011;10281;54.406;18.556;2023-08-30T04:15:35;2.50;;;2.30;;
20245;SDS011;10281;54.406;18.556;2023-08-30T04:18:03;2.83;;;2.60;;
20245;SDS011;10281;54.406;18.556;2023-08-30T04:20:30;2.83;;;2.63;;
20245;SDS011;10281;54.406;18.556;2023-08-30T04:22:58;4.07;;;2.70;;
20245;SDS011;10281;54.406;18.556;2023-08-30T04:25:28;3.47;;;2.90;;
20245;SDS011;10281;54.406;18.556;2023-08-30T04:27:56;3.37;;;3.07;;
20245;SDS011;10281;54.406;18.556;2023-08-30T04:30:22;3.57;;;3.27;;
20245;SDS011;10281;54.406;18.556;2023-08-30T04:32:49;3.83;;;3.53;;
20245;SDS011;10281;54.406;18.556;2023-08-30T04:35:16;4.40;;;4.00;;
20245;SDS011;10281;54.406;18.556;2023-08-30T04:37:43;4.40;;;3.70;;
20245;SDS011;10281;54.406;18.556;2023-08-30T04:40:10;4.53;;;4.13;;
20245;SDS011;10281;54.406;18.556;2023-08-30T04:42:36;4.70;;;4.30;;
20245;SDS011;10281;54.406;18.556;2023-08-30T04:45:07;5.00;;;4.53;;
20245;SDS011;10281;54.406;18.556;2023-08-30T04:47:35;6.30;;;4.37;;
20245;SDS011;10281;54.406;18.556;2023-08-30T04:50:02;4.70;;;4.13;;
20245;SDS011;10281;54.406;18.556;2023-08-30T04:52:29;4.80;;;4.40;;
20245;SDS011;10281;54.406;18.556;2023-08-30T04:54:55;5.20;;;4.47;;
20245;SDS011;10281;54.406;18.556;2023-08-30T04:57:22;5.07;;;3.93;;
20245;SDS011;10281;54.406;18.556;2023-08-30T04:59:48;4.33;;;3.60;;
20245;SDS011;10281;54.406;18.556;2023-08-30T05:02:15;4.67;;;4.13;;
20245;SDS011;10281;54.406;18.556;2023-08-30T05:04:42;4.47;;;4.07;;
20245;SDS011;10281;54.406;18.556;2023-08-30T05:07:08;5.37;;;3.73;;
20245;SDS011;10281;54.406;18.556;2023-08-30T05:09:35;4.23;;;3.57;;
20245;SDS011;10281;54.406;18.556;2023-08-30T05:12:01;3.73;;;3.30;;
20245;SDS011;10281;54.406;18.556;2023-08-30T05:14:28;2.90;;;2.53;;
20245;SDS011;10281;54.406;18.556;2023-08-30T05:16:55;4.77;;;3.47;;
20245;SDS011;10281;54.406;18.556;2023-08-30T05:19:22;3.47;;;3.17;;
20245;SDS011;10281;54.406;18.556;2023-08-30T05:21:48;2.70;;;2.50;;
20245;SDS011;10281;54.406;18.556;2023-08-30T05:24:18;2.60;;;2.40;;
20245;SDS011;10281;54.406;18.556;2023-08-30T05:26:45;2.43;;;2.00;;
20245;SDS011;10281;54.406;18.556;2023-08-30T05:29:13;2.13;;;1.93;;
20245;SDS011;10281;54.406;18.556;2023-08-30T05:31:41;1.80;;;1.70;;
20245;SDS011;10281;54.406;18.556;2023-08-30T05:34:08;2.20;;;2.00;;
20245;SDS011;10281;54.406;18.556;2023-08-30T05:36:34;2.07;;;1.73;;
20245;SDS011;10281;54.406;18.556;2023-08-30T05:39:01;2.33;;;1.57;;
20245;SDS011;10281;54.406;18.556;2023-08-30T05:41:29;1.63;;;1.53;;
20245;SDS011;10281;54.406;18.556;2023-08-30T05:43:56;2.57;;;1.47;;
20245;SDS011;10281;54.406;18.556;2023-08-30T05:46:22;2.17;;;1.50;;
20245;SDS011;10281;54.406;18.556;2023-08-30T05:48:49;2.70;;;1.60;;
20245;SDS011;10281;54.406;18.556;2023-08-30T05:51:16;2.30;;;1.50;;
20245;SDS011;10281;54.406;18.556;2023-08-30T05:53:42;1.60;;;1.40;;
20245;SDS011;10281;54.406;18.556;2023-08-30T05:56:09;2.10;;;1.37;;
20245;SDS011;10281;54.406;18.556;2023-08-30T05:58:35;1.43;;;1.33;;
20245;SDS011;10281;54.406;18.556;2023-08-30T06:01:03;1.97;;;1.50;;
20245;SDS011;10281;54.406;18.556;2023-08-30T06:03:32;1.60;;;1.40;;
20245;SDS011;10281;54.406;18.556;2023-08-30T06:05:59;1.83;;;1.30;;
20245;SDS011;10281;54.406;18.556;2023-08-30T06:08:25;1.63;;;1.20;;
20245;SDS011;10281;54.406;18.556;2023-08-30T06:10:52;2.03;;;1.27;;
20245;SDS011;10281;54.406;18.556;2023-08-30T06:13:19;2.67;;;1.60;;
20245;SDS011;10281;54.406;18.556;2023-08-30T06:15:49;1.20;;;1.10;;
20245;SDS011;10281;54.406;18.556;2023-08-30T06:18:16;1.30;;;1.20;;
20245;SDS011;10281;54.406;18.556;2023-08-30T06:20:43;2.30;;;1.20;;
20245;SDS011;10281;54.406;18.556;2023-08-30T06:23:10;1.20;;;1.10;;
20245;SDS011;10281;54.406;18.556;2023-08-30T06:25:37;2.20;;;1.70;;
20245;SDS011;10281;54.406;18.556;2023-08-30T06:28:04;2.03;;;1.00;;
20245;SDS011;10281;54.406;18.556;2023-08-30T06:30:31;3.33;;;1.10;;
20245;SDS011;10281;54.406;18.556;2023-08-30T06:32:58;2.63;;;1.10;;
20245;SDS011;10281;54.406;18.556;2023-08-30T06:35:25;1.57;;;1.17;;
20245;SDS011;10281;54.406;18.556;2023-08-30T06:37:52;1.30;;;1.20;;
20245;SDS011;10281;54.406;18.556;2023-08-30T06:40:19;1.10;;;0.90;;
20245;SDS011;10281;54.406;18.556;2023-08-30T06:42:45;1.30;;;1.20;;
20245;SDS011;10281;54.406;18.556;2023-08-30T06:45:12;1.10;;;1.07;;
20245;SDS011;10281;54.406;18.556;2023-08-30T06:47:39;2.87;;;1.23;;
20245;SDS011;10281;54.406;18.556;2023-08-30T06:50:06;2.13;;;1.10;;
20245;SDS011;10281;54.406;18.556;2023-08-30T06:52:35;1.50;;;1.13;;
20245;SDS011;10281;54.406;18.556;2023-08-30T06:55:02;1.73;;;1.20;;
20245;SDS011;10281;54.406;18.556;2023-08-30T06:57:28;1.30;;;1.20;;
20245;SDS011;10281;54.406;18.556;2023-08-30T06:59:55;1.67;;;1.27;;
20245;SDS011;10281;54.406;18.556;2023-08-30T07:02:22;1.97;;;1.50;;
20245;SDS011;10281;54.406;18.556;2023-08-30T07:04:49;2.17;;;1.23;;
20245;SDS011;10281;54.406;18.556;2023-08-30T07:07:15;3.13;;;1.60;;
20245;SDS011;10281;54.406;18.556;2023-08-30T07:09:42;1.40;;;1.30;;
20245;SDS011;10281;54.406;18.556;2023-08-30T07:12:09;1.33;;;1.23;;
20245;SDS011;10281;54.406;18.556;2023-08-30T07:14:35;2.23;;;1.70;;
20245;SDS011;10281;54.406;18.556;2023-08-30T07:17:02;1.70;;;1.57;;
20245;SDS011;10281;54.406;18.556;2023-08-30T07:19:29;1.97;;;1.80;;
20245;SDS011;10281;54.406;18.556;2023-08-30T07:21:56;2.00;;;1.80;;
20245;SDS011;10281;54.406;18.556;2023-08-30T07:24:22;1.90;;;1.80;;
20245;SDS011;10281;54.406;18.556;2023-08-30T07:26:49;2.73;;;2.00;;
20245;SDS011;10281;54.406;18.556;2023-08-30T07:29:16;2.97;;;2.13;;
20245;SDS011;10281;54.406;18.556;2023-08-30T07:31:42;2.87;;;2.50;;
20245;SDS011;10281;54.406;18.556;2023-08-30T07:34:09;3.17;;;1.77;;
20245;SDS011;10281;54.406;18.556;2023-08-30T07:36:35;2.27;;;2.07;;
20245;SDS011;10281;54.406;18.556;2023-08-30T07:39:02;2.60;;;2.23;;
20245;SDS011;10281;54.406;18.556;2023-08-30T07:41:29;2.30;;;2.10;;
20245;SDS011;10281;54.406;18.556;2023-08-30T07:43:56;2.63;;;2.33;;
20245;SDS011;10281;54.406;18.556;2023-08-30T07:46:22;2.67;;;2.20;;
20245;SDS011;10281;54.406;18.556;2023-08-30T07:48:49;2.20;;;2.00;;
20245;SDS011;10281;54.406;18.556;2023-08-30T07:51:16;2.27;;;1.90;;
20245;SDS011;10281;54.406;18.556;2023-08-30T07:53:43;1.60;;;1.50;;
20245;SDS011;10281;54.406;18.556;2023-08-30T07:56:09;1.70;;;1.60;;
20245;SDS011;10281;54.406;18.556;2023-08-30T07:58:36;1.57;;;1.40;;
20245;SDS011;10281;54.406;18.556;2023-08-30T08:01:02;1.63;;;1.50;;
20245;SDS011;10281;54.406;18.556;2023-08-30T08:03:29;1.50;;;1.30;;
20245;SDS011;10281;54.406;18.556;2023-08-30T08:05:57;2.07;;;1.50;;
20245;SDS011;10281;54.406;18.556;2023-08-30T08:08:25;1.83;;;1.50;;
20245;SDS011;10281;54.406;18.556;2023-08-30T08:10:52;1.50;;;1.40;;
20245;SDS011;10281;54.406;18.556;2023-08-30T08:13:18;1.43;;;1.30;;
20245;SDS011;10281;54.406;18.556;2023-08-30T08:15:45;1.47;;;1.03;;
20245;SDS011;10281;54.406;18.556;2023-08-30T08:18:12;1.20;;;1.10;;
20245;SDS011;10281;54.406;18.556;2023-08-30T08:20:38;1.20;;;1.10;;
20245;SDS011;10281;54.406;18.556;2023-08-30T08:23:05;1.10;;;1.00;;
20245;SDS011;10281;54.406;18.556;2023-08-30T08:25:32;1.10;;;0.90;;
20245;SDS011;10281;54.406;18.556;2023-08-30T08:27:58;1.27;;;1.10;;
20245;SDS011;10281;54.406;18.556;2023-08-30T08:30:25;1.33;;;0.80;;
20245;SDS011;10281;54.406;18.556;2023-08-30T08:32:51;0.97;;;0.80;;
20245;SDS011;10281;54.406;18.556;2023-08-30T08:35:18;1.50;;;0.90;;
20245;SDS011;10281;54.406;18.556;2023-08-30T08:37:45;1.30;;;0.97;;
20245;SDS011;10281;54.406;18.556;2023-08-30T08:40:12;2.20;;;1.10;;
20245;SDS011;10281;54.406;18.556;2023-08-30T08:42:39;3.07;;;1.20;;
20245;SDS011;10281;54.406;18.556;2023-08-30T08:45:09;2.10;;;1.00;;
20245;SDS011;10281;54.406;18.556;2023-08-30T08:47:37;4.20;;;1.00;;
20245;SDS011;10281;54.406;18.556;2023-08-30T08:50:04;1.77;;;0.90;;
20245;SDS011;10281;54.406;18.556;2023-08-30T08:52:31;1.83;;;1.10;;
20245;SDS011;10281;54.406;18.556;2023-08-30T08:54:58;1.13;;;0.90;;
20245;SDS011;10281;54.406;18.556;2023-08-30T08:57:26;2.10;;;1.00;;
20245;SDS011;10281;54.406;18.556;2023-08-30T08:59:56;1.37;;;1.00;;
20245;SDS011;10281;54.406;18.556;2023-08-30T09:02:23;1.13;;;0.90;;
20245;SDS011;10281;54.406;18.556;2023-08-30T09:04:50;1.17;;;1.00;;
20245;SDS011;10281;54.406;18.556;2023-08-30T09:07:19;1.20;;;0.90;;
20245;SDS011;10281;54.406;18.556;2023-08-30T09:09:46;1.10;;;1.00;;
20245;SDS011;10281;54.406;18.556;2023-08-30T09:12:13;0.90;;;0.90;;
20245;SDS011;10281;54.406;18.556;2023-08-30T09:14:40;1.10;;;0.90;;
20245;SDS011;10281;54.406;18.556;2023-08-30T09:17:06;3.00;;;0.97;;
20245;SDS011;10281;54.406;18.556;2023-08-30T09:19:33;1.47;;;0.90;;
20245;SDS011;10281;54.406;18.556;2023-08-30T09:22:00;1.93;;;1.00;;
20245;SDS011;10281;54.406;18.556;2023-08-30T09:24:36;1.23;;;0.70;;
20245;SDS011;10281;54.406;18.556;2023-08-30T09:26:58;2.17;;;0.90;;
20245;SDS011;10281;54.406;18.556;2023-08-30T09:29:24;2.57;;;0.90;;
20245;SDS011;10281;54.406;18.556;2023-08-30T09:31:52;1.60;;;0.83;;
20245;SDS011;10281;54.406;18.556;2023-08-30T09:34:22;1.13;;;1.03;;
20245;SDS011;10281;54.406;18.556;2023-08-30T09:36:52;1.73;;;1.00;;
20245;SDS011;10281;54.406;18.556;2023-08-30T09:39:19;2.43;;;0.90;;
20245;SDS011;10281;54.406;18.556;2023-08-30T09:41:47;1.23;;;1.13;;
20245;SDS011;10281;54.406;18.556;2023-08-30T09:44:15;0.97;;;0.90;;
20245;SDS011;10281;54.406;18.556;2023-08-30T09:46:45;1.40;;;0.90;;
20245;SDS011;10281;54.406;18.556;2023-08-30T09:49:13;1.50;;;0.80;;
20245;SDS011;10281;54.406;18.556;2023-08-30T09:51:41;3.20;;;1.00;;
20245;SDS011;10281;54.406;18.556;2023-08-30T09:54:13;0.90;;;0.90;;
20245;SDS011;10281;54.406;18.556;2023-08-30T09:56:41;1.83;;;1.00;;
20245;SDS011;10281;54.406;18.556;2023-08-30T09:59:11;1.23;;;1.00;;
20245;SDS011;10281;54.406;18.556;2023-08-30T10:01:40;1.60;;;0.90;;
20245;SDS011;10281;54.406;18.556;2023-08-30T10:04:09;1.77;;;0.90;;
20245;SDS011;10281;54.406;18.556;2023-08-30T10:06:37;1.63;;;1.03;;
20245;SDS011;10281;54.406;18.556;2023-08-30T10:09:05;2.27;;;0.97;;
20245;SDS011;10281;54.406;18.556;2023-08-30T10:11:34;2.47;;;1.00;;
20245;SDS011;10281;54.406;18.556;2023-08-30T10:14:04;1.27;;;0.80;;
20245;SDS011;10281;54.406;18.556;2023-08-30T10:16:37;2.17;;;1.10;;
20245;SDS011;10281;54.406;18.556;2023-08-30T10:19:11;2.60;;;1.57;;
20245;SDS011;10281;54.406;18.556;2023-08-30T10:21:43;1.20;;;0.90;;
20245;SDS011;10281;54.406;18.556;2023-08-30T10:24:11;1.20;;;1.07;;
20245;SDS011;10281;54.406;18.556;2023-08-30T10:26:42;2.30;;;1.00;;
20245;SDS011;10281;54.406;18.556;2023-08-30T10:29:10;0.80;;;0.80;;
20245;SDS011;10281;54.406;18.556;2023-08-30T10:31:38;1.50;;;0.90;;
20245;SDS011;10281;54.406;18.556;2023-08-30T10:34:13;0.90;;;0.90;;
20245;SDS011;10281;54.406;18.556;2023-08-30T10:36:42;1.47;;;1.10;;
20245;SDS011;10281;54.406;18.556;2023-08-30T10:39:12;1.23;;;1.00;;
20245;SDS011;10281;54.406;18.556;2023-08-30T10:42:00;2.70;;;1.00;;
20245;SDS011;10281;54.406;18.556;2023-08-30T10:44:26;1.93;;;0.97;;
20245;SDS011;10281;54.406;18.556;2023-08-30T10:46:53;1.63;;;0.90;;
20245;SDS011;10281;54.406;18.556;2023-08-30T10:49:21;1.77;;;1.30;;
20245;SDS011;10281;54.406;18.556;2023-08-30T10:51:54;1.63;;;1.00;;
20245;SDS011;10281;54.406;18.556;2023-08-30T10:54:23;1.13;;;0.90;;
20245;SDS011;10281;54.406;18.556;2023-08-30T10:56:54;1.23;;;1.03;;
20245;SDS011;10281;54.406;18.556;2023-08-30T10:59:24;1.60;;;1.10;;
20245;SDS011;10281;54.406;18.556;2023-08-30T11:01:51;2.37;;;1.27;;
20245;SDS011;10281;54.406;18.556;2023-08-30T11:04:18;1.70;;;1.10;;
20245;SDS011;10281;54.406;18.556;2023-08-30T11:06:48;1.03;;;0.93;;
20245;SDS011;10281;54.406;18.556;2023-08-30T11:09:17;1.03;;;1.00;;
20245;SDS011;10281;54.406;18.556;2023-08-30T11:11:46;1.60;;;1.20;;
20245;SDS011;10281;54.406;18.556;2023-08-30T11:14:13;1.67;;;1.10;;
20245;SDS011;10281;54.406;18.556;2023-08-30T11:16:40;2.90;;;1.07;;
20245;SDS011;10281;54.406;18.556;2023-08-30T11:19:08;1.73;;;0.90;;
20245;SDS011;10281;54.406;18.556;2023-08-30T11:21:37;1.60;;;0.90;;
20245;SDS011;10281;54.406;18.556;2023-08-30T11:24:06;0.80;;;0.80;;
20245;SDS011;10281;54.406;18.556;2023-08-30T11:26:33;0.97;;;0.90;;
20245;SDS011;10281;54.406;18.556;2023-08-30T11:29:03;0.90;;;0.70;;
20245;SDS011;10281;54.406;18.556;2023-08-30T11:31:34;2.50;;;0.80;;
20245;SDS011;10281;54.406;18.556;2023-08-30T11:34:01;0.70;;;0.70;;
20245;SDS011;10281;54.406;18.556;2023-08-30T11:36:29;0.70;;;0.70;;
20245;SDS011;10281;54.406;18.556;2023-08-30T11:38:57;1.00;;;0.90;;
20245;SDS011;10281;54.406;18.556;2023-08-30T11:41:24;0.70;;;0.63;;
20245;SDS011;10281;54.406;18.556;2023-08-30T11:43:51;2.57;;;0.80;;
20245;SDS011;10281;54.406;18.556;2023-08-30T11:46:19;1.10;;;0.63;;
20245;SDS011;10281;54.406;18.556;2023-08-30T11:48:47;0.80;;;0.60;;
20245;SDS011;10281;54.406;18.556;2023-08-30T11:51:15;0.80;;;0.70;;
20245;SDS011;10281;54.406;18.556;2023-08-30T11:53:43;0.83;;;0.70;;
20245;SDS011;10281;54.406;18.556;2023-08-30T11:56:11;1.17;;;0.80;;
20245;SDS011;10281;54.406;18.556;2023-08-30T11:58:38;0.80;;;0.80;;
20245;SDS011;10281;54.406;18.556;2023-08-30T12:01:05;1.60;;;0.70;;
20245;SDS011;10281;54.406;18.556;2023-08-30T12:03:33;1.50;;;0.70;;
20245;SDS011;10281;54.406;18.556;2023-08-30T12:06:00;1.50;;;0.80;;
20245;SDS011;10281;54.406;18.556;2023-08-30T12:08:28;0.80;;;0.80;;
20245;SDS011;10281;54.406;18.556;2023-08-30T12:10:56;1.13;;;0.80;;
20245;SDS011;10281;54.406;18.556;2023-08-30T12:13:25;1.53;;;0.90;;
20245;SDS011;10281;54.406;18.556;2023-08-30T12:15:54;1.40;;;0.93;;
20245;SDS011;10281;54.406;18.556;2023-08-30T12:18:23;2.07;;;0.90;;
20245;SDS011;10281;54.406;18.556;2023-08-30T12:20:55;0.97;;;0.87;;
20245;SDS011;10281;54.406;18.556;2023-08-30T12:23:23;0.80;;;0.80;;
20245;SDS011;10281;54.406;18.556;2023-08-30T12:26:05;0.97;;;0.90;;
20245;SDS011;10281;54.406;18.556;2023-08-30T12:28:35;1.67;;;1.10;;
20245;SDS011;10281;54.406;18.556;2023-08-30T12:31:04;3.33;;;1.23;;
20245;SDS011;10281;54.406;18.556;2023-08-30T12:33:31;1.53;;;0.90;;
20245;SDS011;10281;54.406;18.556;2023-08-30T12:35:59;2.97;;;1.10;;
20245;SDS011;10281;54.406;18.556;2023-08-30T12:38:26;1.10;;;1.00;;
20245;SDS011;10281;54.406;18.556;2023-08-30T12:40:54;1.53;;;1.00;;
20245;SDS011;10281;54.406;18.556;2023-08-30T12:43:21;1.30;;;1.10;;
20245;SDS011;10281;54.406;18.556;2023-08-30T12:45:48;1.10;;;0.90;;
20245;SDS011;10281;54.406;18.556;2023-08-30T12:48:16;1.10;;;1.00;;
20245;SDS011;10281;54.406;18.556;2023-08-30T12:50:44;2.83;;;1.20;;
20245;SDS011;10281;54.406;18.556;2023-08-30T12:53:13;1.97;;;1.00;;
20245;SDS011;10281;54.406;18.556;2023-08-30T12:55:42;1.93;;;1.00;;
20245;SDS011;10281;54.406;18.556;2023-08-30T12:58:09;1.93;;;1.00;;
20245;SDS011;10281;54.406;18.556;2023-08-30T13:00:37;1.27;;;1.03;;
20245;SDS011;10281;54.406;18.556;2023-08-30T13:03:04;2.60;;;1.10;;
20245;SDS011;10281;54.406;18.556;2023-08-30T13:05:31;2.30;;;1.20;;
20245;SDS011;10281;54.406;18.556;2023-08-30T13:07:58;1.53;;;1.00;;
20245;SDS011;10281;54.406;18.556;2023-08-30T13:10:26;1.37;;;1.00;;
20245;SDS011;10281;54.406;18.556;2023-08-30T13:12:53;1.67;;;1.00;;
20245;SDS011;10281;54.406;18.556;2023-08-30T13:15:19;1.43;;;1.33;;
20245;SDS011;10281;54.406;18.556;2023-08-30T13:17:46;2.83;;;1.20;;
20245;SDS011;10281;54.406;18.556;2023-08-30T13:20:12;2.97;;;1.33;;
20245;SDS011;10281;54.406;18.556;2023-08-30T13:22:39;1.83;;;1.10;;
20245;SDS011;10281;54.406;18.556;2023-08-30T13:25:06;1.60;;;1.20;;
20245;SDS011;10281;54.406;18.556;2023-08-30T13:27:33;4.47;;;1.50;;
20245;SDS011;10281;54.406;18.556;2023-08-30T13:30:00;1.67;;;1.30;;
20245;SDS011;10281;54.406;18.556;2023-08-30T13:32:26;2.27;;;1.10;;
20245;SDS011;10281;54.406;18.556;2023-08-30T13:34:53;1.23;;;1.00;;
20245;SDS011;10281;54.406;18.556;2023-08-30T13:37:19;1.47;;;0.90;;
20245;SDS011;10281;54.406;18.556;2023-08-30T13:39:48;2.70;;;1.40;;
20245;SDS011;10281;54.406;18.556;2023-08-30T13:42:15;1.43;;;0.90;;
20245;SDS011;10281;54.406;18.556;2023-08-30T13:44:42;0.90;;;0.80;;
20245;SDS011;10281;54.406;18.556;2023-08-30T13:47:09;2.27;;;1.10;;
20245;SDS011;10281;54.406;18.556;2023-08-30T13:49:36;1.87;;;0.90;;
20245;SDS011;10281;54.406;18.556;2023-08-30T13:52:03;1.40;;;0.90;;
20245;SDS011;10281;54.406;18.556;2023-08-30T13:54:30;2.27;;;0.90;;
20245;SDS011;10281;54.406;18.556;2023-08-30T13:56:57;1.70;;;0.90;;
20245;SDS011;10281;54.406;18.556;2023-08-30T13:59:24;1.20;;;0.80;;
20245;SDS011;10281;54.406;18.556;2023-08-30T14:01:51;1.57;;;1.30;;
20245;SDS011;10281;54.406;18.556;2023-08-30T14:04:17;1.53;;;1.00;;
20245;SDS011;10281;54.406;18.556;2023-08-30T14:06:44;1.30;;;0.90;;
20245;SDS011;10281;54.406;18.556;2023-08-30T14:09:11;1.10;;;0.80;;
20245;SDS011;10281;54.406;18.556;2023-08-30T14:11:38;0.80;;;0.80;;
20245;SDS011;10281;54.406;18.556;2023-08-30T14:14:07;1.40;;;1.00;;
20245;SDS011;10281;54.406;18.556;2023-08-30T14:16:33;2.80;;;1.20;;
20245;SDS011;10281;54.406;18.556;2023-08-30T14:19:02;2.90;;;1.30;;
20245;SDS011;10281;54.406;18.556;2023-08-30T14:21:31;3.77;;;1.10;;
20245;SDS011;10281;54.406;18.556;2023-08-30T14:23:58;1.53;;;0.90;;
20245;SDS011;10281;54.406;18.556;2023-08-30T14:26:25;1.10;;;0.90;;
20245;SDS011;10281;54.406;18.556;2023-08-30T14:28:52;2.57;;;1.00;;
20245;SDS011;10281;54.406;18.556;2023-08-30T14:31:19;1.07;;;0.93;;
20245;SDS011;10281;54.406;18.556;2023-08-30T14:33:45;2.43;;;1.20;;
20245;SDS011;10281;54.406;18.556;2023-08-30T14:36:12;1.07;;;1.00;;
20245;SDS011;10281;54.406;18.556;2023-08-30T14:38:41;1.67;;;1.00;;